メインページ
METAR-TAF:

METAR-TAF

空港 :

ブリスベン, オーストラリア

ブリスベン空港

緯度: 27-23S, 経度: 153-06E, 海抜: 4m

現時点の気象観測

当レポートは12分前の10:22(UTC)に作成
東/北東の風 12kt
気温 24°C
湿度 94%
気圧 1014 hPa
視程: 9000m
高度800ftの雲はほとんどない
高度1800ftの雲は散在している
高度3000ftの千切れ雲あり
高度1200ftの雲は散在している
高度2000ftの千切れ雲あり
高度5000ftの千切れ雲あり
小雨, 弱いにわか雨, 小雨

METAR: YBBN 231022Z 06010KT 5000 -RA FEW008 SCT018 BKN030 24/23 Q1014 RERA FM1045 06012KT 9000 -SHRA -RA SCT012 BKN020 BKN050 TEMPO 1022/1322 2000 SHRA BKN008

時間: 20:34 (10:34 UTC)

予報

当レポートは5時間17分前の05:17(UTC)に作成
予報は23日の 06時(UTC)から 24日の 12時(UTC)まで有効
東/北東の風 10kt
視程: 9000m
高度1200ftの雲は散在している
高度2000ftの千切れ雲あり
高度5000ftの千切れ雲あり
弱いにわか雨, 小雨
23日の 06時(UTC)から 24日の 12時(UTC)まで一時的に
視程: 2000m
高度800ftの千切れ雲あり

TAF: YBBN 230517Z 2306/2412 06010KT 9000 -SHRA -RA SCT012 BKN020 BKN050 TEMPO 2306/2412 2000 RA BKN008

4,000以上の空港の気象観測と天気予報(METAR報とTAF報)

利用可能な観測所は地図上に黄色い丸と赤い丸で示す。

丸の上にカーソルを重ねると観測所名を参照できる。

次にクリックすると気象観測と天気予報を参照できる。

マップの切り替え:黒色「×」印の緑ボタンをクリックして拡大、「-」印の緑ボタンをクリックして縮小、緑色の三角印をクリックして隣りの地図に切り替え


METAR-TAF: